Terminal Aerodrome Forecast
Issued by NWS Central Illinois

Home | Current Version | Previous Version | Text Only | Print | Product List | Glossary On
Versions: 1 2 3 4 5 6 7 8 9 10 11 12 13 14 15 16 17 18 19 20 21 22 23 24
000
FTUS43 KILX 010520
TAFPIA
TAF
KPIA 010520Z 0106/0206 06011KT 2SM BR OVC003
      TEMPO 0108/0112 1/2SM FG
     FM011300 04006KT 2SM BR VCSH OVC003
     FM011600 04007KT P6SM VCSH OVC008
     FM012100 35009KT P6SM VCTS OVC012CB
     FM020000 36010KT P6SM OVC003=

USA.gov is the U.S. government's official web portal to all federal, state and local government web resources and services.